FZY weather

Oswego County Airport
Fulton, New York, United States

Public forecast

Using degrees Fahrenheit for public forecast. Weather courtesy of forecast.io.

METAR (pilot weather report)

Retrieved 2019/07/19 06:54 UTC (7 minutes ago):

KFZY 190654Z AUTO VRB03KT 9SM CLR 22/19 A2984 RMK AO2 SLP102 T02170194

TAF (pilot weather forecast)

Closest forecast is Syracuse Hancock International Airport, 18.9 nm (35.1 km) SE. Retrieved 2019/07/19 06:42 UTC (19 minutes ago):

TAF KSYR 190540Z 1906/2006 VRB03KT P6SM SCT200 FM191400 22006KT P6SM SCT060 BKN120 FM191700 25008KT P6SM BKN060